sensor_id;sensor_type;location;lat;lon;timestamp;temperature;humidity
75357;HTU21D;63946;51.986;5.930;2023-07-13T03:45:03;16.62;65.33
75357;HTU21D;63946;51.986;5.930;2023-07-13T03:47:47;16.62;65.46
75357;HTU21D;63946;51.986;5.930;2023-07-13T03:50:18;16.62;65.48
75357;HTU21D;63946;51.986;5.930;2023-07-13T03:52:47;16.61;65.55
75357;HTU21D;63946;51.986;5.930;2023-07-13T03:55:16;16.61;65.69
75357;HTU21D;63946;51.986;5.930;2023-07-13T03:57:45;16.62;65.64
75357;HTU21D;63946;51.986;5.930;2023-07-13T04:00:14;16.62;65.69
75357;HTU21D;63946;51.986;5.930;2023-07-13T04:02:44;16.63;65.75
75357;HTU21D;63946;51.986;5.930;2023-07-13T04:05:15;16.63;65.75
75357;HTU21D;63946;51.986;5.930;2023-07-13T04:07:45;16.64;65.62
75357;HTU21D;63946;51.986;5.930;2023-07-13T04:10:14;16.64;65.69
75357;HTU21D;63946;51.986;5.930;2023-07-13T04:12:43;16.66;65.75
75357;HTU21D;63946;51.986;5.930;2023-07-13T04:15:12;16.67;65.82
75357;HTU21D;63946;51.986;5.930;2023-07-13T04:17:41;16.69;65.80
75357;HTU21D;63946;51.986;5.930;2023-07-13T04:20:10;16.69;65.91
75357;HTU21D;63946;51.986;5.930;2023-07-13T04:22:39;16.72;66.03
75357;HTU21D;63946;51.986;5.930;2023-07-13T04:25:07;16.71;66.09
75357;HTU21D;63946;51.986;5.930;2023-07-13T04:27:36;16.74;66.16
75357;HTU21D;63946;51.986;5.930;2023-07-13T04:30:06;16.78;66.14
75357;HTU21D;63946;51.986;5.930;2023-07-13T04:32:36;16.82;66.07
75357;HTU21D;63946;51.986;5.930;2023-07-13T04:35:05;16.89;66.03
75357;HTU21D;63946;51.986;5.930;2023-07-13T04:37:35;16.98;65.98
75357;HTU21D;63946;51.986;5.930;2023-07-13T04:40:04;17.03;65.88
75357;HTU21D;63946;51.986;5.930;2023-07-13T04:42:41;17.11;65.79
75357;HTU21D;63946;51.986;5.930;2023-07-13T04:45:11;17.15;65.73
75357;HTU21D;63946;51.986;5.930;2023-07-13T04:47:40;17.16;65.78
75357;HTU21D;63946;51.986;5.930;2023-07-13T04:50:09;17.18;65.85
75357;HTU21D;63946;51.986;5.930;2023-07-13T04:52:41;17.24;65.82
75357;HTU21D;63946;51.986;5.930;2023-07-13T04:55:10;17.24;65.84
75357;HTU21D;63946;51.986;5.930;2023-07-13T04:57:39;17.26;65.85
75357;HTU21D;63946;51.986;5.930;2023-07-13T05:00:11;17.34;65.77
75357;HTU21D;63946;51.986;5.930;2023-07-13T05:02:44;17.39;65.62
75357;HTU21D;63946;51.986;5.930;2023-07-13T05:05:13;17.44;65.63
75357;HTU21D;63946;51.986;5.930;2023-07-13T05:07:42;17.46;65.54
75357;HTU21D;63946;51.986;5.930;2023-07-13T05:10:11;17.51;65.53
75357;HTU21D;63946;51.986;5.930;2023-07-13T05:12:40;17.51;65.57
75357;HTU21D;63946;51.986;5.930;2023-07-13T05:15:09;17.56;65.57
75357;HTU21D;63946;51.986;5.930;2023-07-13T05:17:38;17.60;65.56
75357;HTU21D;63946;51.986;5.930;2023-07-13T05:20:08;17.64;65.56
75357;HTU21D;63946;51.986;5.930;2023-07-13T05:22:38;17.65;65.53
75357;HTU21D;63946;51.986;5.930;2023-07-13T05:25:07;17.66;65.64
75357;HTU21D;63946;51.986;5.930;2023-07-13T05:27:36;17.66;65.78
75357;HTU21D;63946;51.986;5.930;2023-07-13T05:30:06;17.67;65.75
75357;HTU21D;63946;51.986;5.930;2023-07-13T05:32:36;17.70;65.69
75357;HTU21D;63946;51.986;5.930;2023-07-13T05:35:06;17.73;65.70
75357;HTU21D;63946;51.986;5.930;2023-07-13T05:37:37;17.75;65.70
75357;HTU21D;63946;51.986;5.930;2023-07-13T05:40:06;17.73;65.80
75357;HTU21D;63946;51.986;5.930;2023-07-13T05:42:35;17.72;65.88
75357;HTU21D;63946;51.986;5.930;2023-07-13T05:45:05;17.74;65.98
75357;HTU21D;63946;51.986;5.930;2023-07-13T05:47:33;17.80;65.92
75357;HTU21D;63946;51.986;5.930;2023-07-13T05:50:02;17.85;65.85
75357;HTU21D;63946;51.986;5.930;2023-07-13T05:52:31;17.88;65.88
75357;HTU21D;63946;51.986;5.930;2023-07-13T05:55:00;17.88;65.99
75357;HTU21D;63946;51.986;5.930;2023-07-13T05:57:30;17.94;65.91
75357;HTU21D;63946;51.986;5.930;2023-07-13T05:59:59;17.99;65.88
75357;HTU21D;63946;51.986;5.930;2023-07-13T06:02:38;18.07;65.77
75357;HTU21D;63946;51.986;5.930;2023-07-13T06:05:07;18.14;65.78
75357;HTU21D;63946;51.986;5.930;2023-07-13T06:07:36;18.21;65.68
75357;HTU21D;63946;51.986;5.930;2023-07-13T06:10:05;18.17;65.85
75357;HTU21D;63946;51.986;5.930;2023-07-13T06:12:34;18.14;66.04
75357;HTU21D;63946;51.986;5.930;2023-07-13T06:15:03;18.19;66.10
75357;HTU21D;63946;51.986;5.930;2023-07-13T06:17:32;18.26;66.11
75357;HTU21D;63946;51.986;5.930;2023-07-13T06:20:01;18.32;65.98
75357;HTU21D;63946;51.986;5.930;2023-07-13T06:22:30;18.35;66.01
75357;HTU21D;63946;51.986;5.930;2023-07-13T06:24:59;18.40;65.88
75357;HTU21D;63946;51.986;5.930;2023-07-13T06:27:28;18.41;65.90
75357;HTU21D;63946;51.986;5.930;2023-07-13T06:29:57;18.46;65.90
75357;HTU21D;63946;51.986;5.930;2023-07-13T06:32:26;18.44;65.98
75357;HTU21D;63946;51.986;5.930;2023-07-13T06:34:55;18.41;66.10
75357;HTU21D;63946;51.986;5.930;2023-07-13T06:37:24;18.47;66.20
75357;HTU21D;63946;51.986;5.930;2023-07-13T06:39:53;18.44;66.34
75357;HTU21D;63946;51.986;5.930;2023-07-13T06:42:21;18.50;66.26
75357;HTU21D;63946;51.986;5.930;2023-07-13T06:44:50;18.56;66.13
75357;HTU21D;63946;51.986;5.930;2023-07-13T06:47:19;18.70;65.94
75357;HTU21D;63946;51.986;5.930;2023-07-13T06:49:48;18.85;65.72
75357;HTU21D;63946;51.986;5.930;2023-07-13T06:52:17;18.95;65.57
75357;HTU21D;63946;51.986;5.930;2023-07-13T06:54:46;18.94;65.58
75357;HTU21D;63946;51.986;5.930;2023-07-13T06:57:14;18.94;65.69
75357;HTU21D;63946;51.986;5.930;2023-07-13T06:59:43;19.05;65.58
75357;HTU21D;63946;51.986;5.930;2023-07-13T07:02:12;19.11;65.50
75357;HTU21D;63946;51.986;5.930;2023-07-13T07:04:41;19.16;65.37
75357;HTU21D;63946;51.986;5.930;2023-07-13T07:07:10;19.16;65.40
75357;HTU21D;63946;51.986;5.930;2023-07-13T07:09:39;19.14;65.53
75357;HTU21D;63946;51.986;5.930;2023-07-13T07:12:08;19.20;65.47
75357;HTU21D;63946;51.986;5.930;2023-07-13T07:14:36;19.24;65.30
75357;HTU21D;63946;51.986;5.930;2023-07-13T07:17:05;19.29;65.27
75357;HTU21D;63946;51.986;5.930;2023-07-13T07:19:35;19.32;65.21
75357;HTU21D;63946;51.986;5.930;2023-07-13T07:22:04;19.35;65.22
75357;HTU21D;63946;51.986;5.930;2023-07-13T07:24:32;19.42;65.06
75357;HTU21D;63946;51.986;5.930;2023-07-13T07:27:01;19.53;64.95
75357;HTU21D;63946;51.986;5.930;2023-07-13T07:29:30;19.60;64.80
75357;HTU21D;63946;51.986;5.930;2023-07-13T07:31:59;19.62;64.64
75357;HTU21D;63946;51.986;5.930;2023-07-13T07:34:29;19.59;64.66
75357;HTU21D;63946;51.986;5.930;2023-07-13T07:37:01;19.59;64.59
75357;HTU21D;63946;51.986;5.930;2023-07-13T07:39:30;19.63;64.47
75357;HTU21D;63946;51.986;5.930;2023-07-13T07:41:59;19.68;64.38
75357;HTU21D;63946;51.986;5.930;2023-07-13T07:44:28;19.76;64.24
75357;HTU21D;63946;51.986;5.930;2023-07-13T07:46:56;19.88;63.99
75357;HTU21D;63946;51.986;5.930;2023-07-13T07:49:26;20.12;63.64
75357;HTU21D;63946;51.986;5.930;2023-07-13T07:51:55;20.36;63.15
75357;HTU21D;63946;51.986;5.930;2023-07-13T07:54:24;20.54;62.68
75357;HTU21D;63946;51.986;5.930;2023-07-13T07:56:52;20.62;62.41
75357;HTU21D;63946;51.986;5.930;2023-07-13T07:59:24;20.70;62.22
75357;HTU21D;63946;51.986;5.930;2023-07-13T08:01:53;20.68;62.23
75357;HTU21D;63946;51.986;5.930;2023-07-13T08:04:21;20.63;62.29
75357;HTU21D;63946;51.986;5.930;2023-07-13T08:06:50;20.59;62.35
75357;HTU21D;63946;51.986;5.930;2023-07-13T08:09:19;20.76;61.92
75357;HTU21D;63946;51.986;5.930;2023-07-13T08:11:48;21.04;61.36
75357;HTU21D;63946;51.986;5.930;2023-07-13T08:14:18;21.20;61.05
75357;HTU21D;63946;51.986;5.930;2023-07-13T08:16:46;21.40;60.31
75357;HTU21D;63946;51.986;5.930;2023-07-13T08:19:15;21.48;60.31
75357;HTU21D;63946;51.986;5.930;2023-07-13T08:21:44;21.65;59.95
75357;HTU21D;63946;51.986;5.930;2023-07-13T08:24:14;21.76;59.63
75357;HTU21D;63946;51.986;5.930;2023-07-13T08:26:45;21.93;58.86
75357;HTU21D;63946;51.986;5.930;2023-07-13T08:29:14;21.95;58.62
75357;HTU21D;63946;51.986;5.930;2023-07-13T08:31:43;21.91;58.77
75357;HTU21D;63946;51.986;5.930;2023-07-13T08:34:11;21.99;58.77
75357;HTU21D;63946;51.986;5.930;2023-07-13T08:36:40;22.28;58.15
75357;HTU21D;63946;51.986;5.930;2023-07-13T08:39:09;22.52;57.06
75357;HTU21D;63946;51.986;5.930;2023-07-13T08:41:39;22.52;57.03
75357;HTU21D;63946;51.986;5.930;2023-07-13T08:47:09;22.71;56.65
75357;HTU21D;63946;51.986;5.930;2023-07-13T08:49:38;22.67;56.61
75357;HTU21D;63946;51.986;5.930;2023-07-13T08:54:49;22.32;56.78
75357;HTU21D;63946;51.986;5.930;2023-07-13T08:57:21;21.76;57.79
75357;HTU21D;63946;51.986;5.930;2023-07-13T08:59:55;21.47;58.38
75357;HTU21D;63946;51.986;5.930;2023-07-13T09:05:10;21.28;58.83
75357;HTU21D;63946;51.986;5.930;2023-07-13T09:10:35;21.57;57.71
75357;HTU21D;63946;51.986;5.930;2023-07-13T09:14:18;22.19;56.36
75357;HTU21D;63946;51.986;5.930;2023-07-13T09:16:24;22.70;54.75
75357;HTU21D;63946;51.986;5.930;2023-07-13T09:18:58;23.03;53.71
75357;HTU21D;63946;51.986;5.930;2023-07-13T09:21:34;22.91;53.19
75357;HTU21D;63946;51.986;5.930;2023-07-13T09:24:38;23.07;52.97
75357;HTU21D;63946;51.986;5.930;2023-07-13T09:27:17;23.07;52.61
75357;HTU21D;63946;51.986;5.930;2023-07-13T09:29:51;23.02;52.97
75357;HTU21D;63946;51.986;5.930;2023-07-13T09:32:24;23.05;52.53
75357;HTU21D;63946;51.986;5.930;2023-07-13T09:34:55;23.02;52.61
75357;HTU21D;63946;51.986;5.930;2023-07-13T09:37:30;22.91;52.70
75357;HTU21D;63946;51.986;5.930;2023-07-13T09:40:01;22.56;53.79
75357;HTU21D;63946;51.986;5.930;2023-07-13T09:42:35;22.22;55.37
75357;HTU21D;63946;51.986;5.930;2023-07-13T09:45:04;21.90;56.69
75357;HTU21D;63946;51.986;5.930;2023-07-13T09:47:40;21.66;56.70
75357;HTU21D;63946;51.986;5.930;2023-07-13T09:50:14;21.52;56.55
75357;HTU21D;63946;51.986;5.930;2023-07-13T09:52:47;21.52;56.23
75357;HTU21D;63946;51.986;5.930;2023-07-13T09:55:36;21.55;56.67
75357;HTU21D;63946;51.986;5.930;2023-07-13T09:58:13;21.59;56.93
75357;HTU21D;63946;51.986;5.930;2023-07-13T10:00:44;21.65;56.93
75357;HTU21D;63946;51.986;5.930;2023-07-13T10:03:29;21.66;56.97
75357;HTU21D;63946;51.986;5.930;2023-07-13T10:06:15;21.64;57.45
75357;HTU21D;63946;51.986;5.930;2023-07-13T10:08:46;21.62;57.64
75357;HTU21D;63946;51.986;5.930;2023-07-13T10:11:29;21.81;57.50
75357;HTU21D;63946;51.986;5.930;2023-07-13T10:14:02;22.06;57.02
75357;HTU21D;63946;51.986;5.930;2023-07-13T10:16:33;22.25;56.73
75357;HTU21D;63946;51.986;5.930;2023-07-13T10:19:18;22.63;56.51
75357;HTU21D;63946;51.986;5.930;2023-07-13T10:21:57;22.97;55.47
75357;HTU21D;63946;51.986;5.930;2023-07-13T10:24:33;23.23;54.45
75357;HTU21D;63946;51.986;5.930;2023-07-13T10:27:15;23.50;54.25
75357;HTU21D;63946;51.986;5.930;2023-07-13T10:29:57;23.71;53.43
75357;HTU21D;63946;51.986;5.930;2023-07-13T10:32:28;23.91;52.70
75357;HTU21D;63946;51.986;5.930;2023-07-13T10:35:00;24.14;52.07
75357;HTU21D;63946;51.986;5.930;2023-07-13T10:37:37;24.03;51.89
75357;HTU21D;63946;51.986;5.930;2023-07-13T10:40:13;23.82;52.33
75357;HTU21D;63946;51.986;5.930;2023-07-13T10:42:45;23.62;52.46
75357;HTU21D;63946;51.986;5.930;2023-07-13T10:45:21;23.53;51.62
75357;HTU21D;63946;51.986;5.930;2023-07-13T10:47:53;23.31;51.59
75357;HTU21D;63946;51.986;5.930;2023-07-13T10:50:25;23.01;52.31
75357;HTU21D;63946;51.986;5.930;2023-07-13T10:53:17;22.77;54.05
75357;HTU21D;63946;51.986;5.930;2023-07-13T10:58:20;22.31;57.35
75357;HTU21D;63946;51.986;5.930;2023-07-13T11:01:08;22.51;58.33
75357;HTU21D;63946;51.986;5.930;2023-07-13T11:08:51;23.34;57.17
75357;HTU21D;63946;51.986;5.930;2023-07-13T11:14:00;23.85;56.14
75357;HTU21D;63946;51.986;5.930;2023-07-13T11:16:43;23.90;56.28
75357;HTU21D;63946;51.986;5.930;2023-07-13T11:24:56;23.68;55.97
75357;HTU21D;63946;51.986;5.930;2023-07-13T11:27:43;23.28;55.15
75357;HTU21D;63946;51.986;5.930;2023-07-13T11:36:19;22.78;54.68
75357;HTU21D;63946;51.986;5.930;2023-07-13T11:41:53;23.31;52.19
75357;HTU21D;63946;51.986;5.930;2023-07-13T11:44:25;23.47;52.02
75357;HTU21D;63946;51.986;5.930;2023-07-13T11:46:56;23.70;51.17
75357;HTU21D;63946;51.986;5.930;2023-07-13T11:49:29;23.95;50.24
75357;HTU21D;63946;51.986;5.930;2023-07-13T11:51:59;24.26;50.13
75357;HTU21D;63946;51.986;5.930;2023-07-13T11:54:32;24.48;49.56
75357;HTU21D;63946;51.986;5.930;2023-07-13T11:57:10;24.74;48.92
75357;HTU21D;63946;51.986;5.930;2023-07-13T11:59:45;24.79;48.98
75357;HTU21D;63946;51.986;5.930;2023-07-13T12:02:51;24.49;49.29
75357;HTU21D;63946;51.986;5.930;2023-07-13T12:05:14;24.16;50.02
75357;HTU21D;63946;51.986;5.930;2023-07-13T12:07:44;23.90;50.38
75357;HTU21D;63946;51.986;5.930;2023-07-13T12:10:25;23.66;51.05
75357;HTU21D;63946;51.986;5.930;2023-07-13T12:13:03;23.42;51.28
75357;HTU21D;63946;51.986;5.930;2023-07-13T12:15:43;23.20;52.36
75357;HTU21D;63946;51.986;5.930;2023-07-13T12:18:22;23.17;52.75
75357;HTU21D;63946;51.986;5.930;2023-07-13T12:20:53;23.36;52.33
75357;HTU21D;63946;51.986;5.930;2023-07-13T12:23:29;23.69;51.62
75357;HTU21D;63946;51.986;5.930;2023-07-13T12:26:02;23.95;51.15
75357;HTU21D;63946;51.986;5.930;2023-07-13T12:28:37;24.24;50.38
75357;HTU21D;63946;51.986;5.930;2023-07-13T12:31:22;24.48;50.11
75357;HTU21D;63946;51.986;5.930;2023-07-13T12:34:00;24.80;49.89
75357;HTU21D;63946;51.986;5.930;2023-07-13T12:36:32;25.10;49.73
75357;HTU21D;63946;51.986;5.930;2023-07-13T12:39:14;25.30;49.04
75357;HTU21D;63946;51.986;5.930;2023-07-13T12:41:44;25.39;48.11
75357;HTU21D;63946;51.986;5.930;2023-07-13T12:44:16;25.10;48.32
75357;HTU21D;63946;51.986;5.930;2023-07-13T12:47:03;24.70;49.38
75357;HTU21D;63946;51.986;5.930;2023-07-13T12:49:48;24.40;49.79
75357;HTU21D;63946;51.986;5.930;2023-07-13T12:52:21;24.15;49.64
75357;HTU21D;63946;51.986;5.930;2023-07-13T12:55:04;23.85;50.44
75357;HTU21D;63946;51.986;5.930;2023-07-13T12:57:40;23.64;51.24
75357;HTU21D;63946;51.986;5.930;2023-07-13T13:00:31;23.42;51.47
75357;HTU21D;63946;51.986;5.930;2023-07-13T13:03:05;23.17;51.79
75357;HTU21D;63946;51.986;5.930;2023-07-13T13:05:34;23.06;51.75
75357;HTU21D;63946;51.986;5.930;2023-07-13T13:08:04;22.97;51.47
75357;HTU21D;63946;51.986;5.930;2023-07-13T13:10:33;22.94;51.33
75357;HTU21D;63946;51.986;5.930;2023-07-13T13:13:02;22.83;51.28
75357;HTU21D;63946;51.986;5.930;2023-07-13T13:15:31;22.87;51.27
75357;HTU21D;63946;51.986;5.930;2023-07-13T13:17:59;22.83;50.92
75357;HTU21D;63946;51.986;5.930;2023-07-13T13:20:31;22.72;51.38
75357;HTU21D;63946;51.986;5.930;2023-07-13T13:23:00;22.72;51.56
75357;HTU21D;63946;51.986;5.930;2023-07-13T13:25:29;22.83;51.66
75357;HTU21D;63946;51.986;5.930;2023-07-13T13:27:57;22.95;51.68
75357;HTU21D;63946;51.986;5.930;2023-07-13T13:30:27;23.05;51.41
75357;HTU21D;63946;51.986;5.930;2023-07-13T13:32:56;23.37;51.07
75357;HTU21D;63946;51.986;5.930;2023-07-13T13:35:25;23.74;50.52
75357;HTU21D;63946;51.986;5.930;2023-07-13T13:37:54;23.92;50.02
75357;HTU21D;63946;51.986;5.930;2023-07-13T13:40:22;23.82;50.32
75357;HTU21D;63946;51.986;5.930;2023-07-13T13:42:53;23.68;50.51
75357;HTU21D;63946;51.986;5.930;2023-07-13T13:45:24;23.59;50.85
75357;HTU21D;63946;51.986;5.930;2023-07-13T13:47:53;23.64;50.32
75357;HTU21D;63946;51.986;5.930;2023-07-13T13:50:23;23.69;50.37
75357;HTU21D;63946;51.986;5.930;2023-07-13T13:52:52;23.75;50.53
75357;HTU21D;63946;51.986;5.930;2023-07-13T13:55:21;23.76;50.63
75357;HTU21D;63946;51.986;5.930;2023-07-13T13:57:51;23.77;49.75
75357;HTU21D;63946;51.986;5.930;2023-07-13T14:00:20;23.85;48.39
75357;HTU21D;63946;51.986;5.930;2023-07-13T14:02:50;24.08;48.00
75357;HTU21D;63946;51.986;5.930;2023-07-13T14:05:24;24.46;46.89
75357;HTU21D;63946;51.986;5.930;2023-07-13T14:07:54;24.82;45.43
75357;HTU21D;63946;51.986;5.930;2023-07-13T14:10:23;24.99;44.77
75357;HTU21D;63946;51.986;5.930;2023-07-13T14:12:53;25.01;44.64
75357;HTU21D;63946;51.986;5.930;2023-07-13T14:15:28;24.91;44.69
75357;HTU21D;63946;51.986;5.930;2023-07-13T14:17:59;24.77;43.77
75357;HTU21D;63946;51.986;5.930;2023-07-13T14:20:28;24.58;44.34
75357;HTU21D;63946;51.986;5.930;2023-07-13T14:22:58;24.53;44.22
75357;HTU21D;63946;51.986;5.930;2023-07-13T14:25:26;24.74;44.18
75357;HTU21D;63946;51.986;5.930;2023-07-13T14:27:58;24.84;43.67
75357;HTU21D;63946;51.986;5.930;2023-07-13T14:30:33;24.71;44.09
75357;HTU21D;63946;51.986;5.930;2023-07-13T14:33:08;24.73;43.75
75357;HTU21D;63946;51.986;5.930;2023-07-13T14:35:37;24.88;43.45
75357;HTU21D;63946;51.986;5.930;2023-07-13T14:38:11;24.95;43.52
75357;HTU21D;63946;51.986;5.930;2023-07-13T14:40:41;24.89;43.51
75357;HTU21D;63946;51.986;5.930;2023-07-13T14:43:14;24.73;43.16
75357;HTU21D;63946;51.986;5.930;2023-07-13T14:45:46;24.49;43.76
75357;HTU21D;63946;51.986;5.930;2023-07-13T14:48:20;24.45;44.45
75357;HTU21D;63946;51.986;5.930;2023-07-13T14:50:59;24.45;44.30
75357;HTU21D;63946;51.986;5.930;2023-07-13T14:53:28;24.41;44.22
75357;HTU21D;63946;51.986;5.930;2023-07-13T14:55:57;24.40;44.38
75357;HTU21D;63946;51.986;5.930;2023-07-13T14:58:26;24.40;44.45
75357;HTU21D;63946;51.986;5.930;2023-07-13T15:00:55;24.36;44.31
75357;HTU21D;63946;51.986;5.930;2023-07-13T15:03:24;24.31;44.28
75357;HTU21D;63946;51.986;5.930;2023-07-13T15:05:54;24.25;44.30
75357;HTU21D;63946;51.986;5.930;2023-07-13T15:08:23;24.16;44.29
75357;HTU21D;63946;51.986;5.930;2023-07-13T15:10:52;24.11;44.52
75357;HTU21D;63946;51.986;5.930;2023-07-13T15:13:23;24.09;44.41
75357;HTU21D;63946;51.986;5.930;2023-07-13T15:15:53;24.08;44.59
75357;HTU21D;63946;51.986;5.930;2023-07-13T15:18:24;24.03;44.74
75357;HTU21D;63946;51.986;5.930;2023-07-13T15:20:56;24.04;44.62
75357;HTU21D;63946;51.986;5.930;2023-07-13T15:23:29;23.97;44.68
75357;HTU21D;63946;51.986;5.930;2023-07-13T15:25:58;23.91;44.71
75357;HTU21D;63946;51.986;5.930;2023-07-13T15:28:27;23.84;44.80
75357;HTU21D;63946;51.986;5.930;2023-07-13T15:30:56;23.82;44.88
75357;HTU21D;63946;51.986;5.930;2023-07-13T15:33:28;23.77;45.14
75357;HTU21D;63946;51.986;5.930;2023-07-13T15:35:57;23.77;45.06
75357;HTU21D;63946;51.986;5.930;2023-07-13T15:38:30;23.73;45.12
75357;HTU21D;63946;51.986;5.930;2023-07-13T15:40:59;23.68;45.22
75357;HTU21D;63946;51.986;5.930;2023-07-13T15:43:32;23.64;45.43
75357;HTU21D;63946;51.986;5.930;2023-07-13T15:46:00;23.59;45.20
75357;HTU21D;63946;51.986;5.930;2023-07-13T15:48:29;23.55;45.46
75357;HTU21D;63946;51.986;5.930;2023-07-13T15:51:01;23.51;45.38
75357;HTU21D;63946;51.986;5.930;2023-07-13T15:53:33;23.49;45.45
75357;HTU21D;63946;51.986;5.930;2023-07-13T15:56:17;23.44;45.49
75357;HTU21D;63946;51.986;5.930;2023-07-13T15:58:49;23.44;45.56
75357;HTU21D;63946;51.986;5.930;2023-07-13T16:01:18;23.43;45.58
75357;HTU21D;63946;51.986;5.930;2023-07-13T16:03:48;23.42;45.70
75357;HTU21D;63946;51.986;5.930;2023-07-13T16:06:24;23.43;46.22
75357;HTU21D;63946;51.986;5.930;2023-07-13T16:08:53;23.50;46.47
75357;HTU21D;63946;51.986;5.930;2023-07-13T16:11:25;23.53;46.61
75357;HTU21D;63946;51.986;5.930;2023-07-13T16:13:54;23.54;46.74
75357;HTU21D;63946;51.986;5.930;2023-07-13T16:16:27;23.54;46.76
75357;HTU21D;63946;51.986;5.930;2023-07-13T16:18:58;23.58;46.71
75357;HTU21D;63946;51.986;5.930;2023-07-13T16:21:30;23.58;46.09
75357;HTU21D;63946;51.986;5.930;2023-07-13T16:24:01;23.46;46.09
75357;HTU21D;63946;51.986;5.930;2023-07-13T16:29:28;23.40;46.08
75357;HTU21D;63946;51.986;5.930;2023-07-13T16:32:16;23.40;45.87
75357;HTU21D;63946;51.986;5.930;2023-07-13T16:34:48;23.39;46.24
75357;HTU21D;63946;51.986;5.930;2023-07-13T16:37:20;23.38;46.48
75357;HTU21D;63946;51.986;5.930;2023-07-13T16:39:57;23.31;46.53
75357;HTU21D;63946;51.986;5.930;2023-07-13T16:42:26;23.25;46.97
75357;HTU21D;63946;51.986;5.930;2023-07-13T16:44:55;23.20;47.15
75357;HTU21D;63946;51.986;5.930;2023-07-13T16:47:24;23.17;47.23
75357;HTU21D;63946;51.986;5.930;2023-07-13T16:49:53;23.09;47.38
75357;HTU21D;63946;51.986;5.930;2023-07-13T16:52:24;23.08;47.59
75357;HTU21D;63946;51.986;5.930;2023-07-13T16:54:53;23.08;47.69
75357;HTU21D;63946;51.986;5.930;2023-07-13T16:57:27;23.07;47.99
75357;HTU21D;63946;51.986;5.930;2023-07-13T16:59:58;23.03;47.99
75357;HTU21D;63946;51.986;5.930;2023-07-13T17:05:01;23.03;48.31
75357;HTU21D;63946;51.986;5.930;2023-07-13T17:07:32;23.02;48.47
75357;HTU21D;63946;51.986;5.930;2023-07-13T17:10:01;23.02;48.73
75357;HTU21D;63946;51.986;5.930;2023-07-13T17:12:30;23.01;48.76
75357;HTU21D;63946;51.986;5.930;2023-07-13T17:15:01;22.96;48.77
75357;HTU21D;63946;51.986;5.930;2023-07-13T17:17:40;22.94;48.68
75357;HTU21D;63946;51.986;5.930;2023-07-13T17:20:16;22.91;48.80
75357;HTU21D;63946;51.986;5.930;2023-07-13T17:22:48;22.90;48.90
75357;HTU21D;63946;51.986;5.930;2023-07-13T17:25:18;22.91;48.59
75357;HTU21D;63946;51.986;5.930;2023-07-13T17:27:48;22.90;48.40
75357;HTU21D;63946;51.986;5.930;2023-07-13T17:30:21;22.85;48.54
75357;HTU21D;63946;51.986;5.930;2023-07-13T17:32:50;22.82;48.37
75357;HTU21D;63946;51.986;5.930;2023-07-13T17:35:29;22.82;48.34
75357;HTU21D;63946;51.986;5.930;2023-07-13T17:38:01;22.82;48.17
75357;HTU21D;63946;51.986;5.930;2023-07-13T17:40:30;22.81;47.45
75357;HTU21D;63946;51.986;5.930;2023-07-13T17:42:59;22.81;47.17
75357;HTU21D;63946;51.986;5.930;2023-07-13T17:45:30;22.75;46.64
75357;HTU21D;63946;51.986;5.930;2023-07-13T17:47:59;22.70;46.45
75357;HTU21D;63946;51.986;5.930;2023-07-13T17:50:33;22.66;46.41
75357;HTU21D;63946;51.986;5.930;2023-07-13T17:53:17;22.62;46.26
75357;HTU21D;63946;51.986;5.930;2023-07-13T17:55:49;22.57;46.14
75357;HTU21D;63946;51.986;5.930;2023-07-13T17:58:19;22.55;46.27
75357;HTU21D;63946;51.986;5.930;2023-07-13T18:00:50;22.52;46.37
75357;HTU21D;63946;51.986;5.930;2023-07-13T18:03:27;22.52;46.45
75357;HTU21D;63946;51.986;5.930;2023-07-13T18:06:00;22.46;46.15
75357;HTU21D;63946;51.986;5.930;2023-07-13T18:08:31;22.41;46.15
75357;HTU21D;63946;51.986;5.930;2023-07-13T18:11:02;22.39;46.01
75357;HTU21D;63946;51.986;5.930;2023-07-13T18:13:31;22.35;46.19
75357;HTU21D;63946;51.986;5.930;2023-07-13T18:16:13;22.33;46.49
75357;HTU21D;63946;51.986;5.930;2023-07-13T18:18:44;22.32;46.70
75357;HTU21D;63946;51.986;5.930;2023-07-13T18:21:14;22.28;47.02
75357;HTU21D;63946;51.986;5.930;2023-07-13T18:23:47;22.27;46.95
75357;HTU21D;63946;51.986;5.930;2023-07-13T18:26:18;22.25;46.93
75357;HTU21D;63946;51.986;5.930;2023-07-13T18:28:56;22.21;47.00
75357;HTU21D;63946;51.986;5.930;2023-07-13T18:31:32;22.17;47.00
75357;HTU21D;63946;51.986;5.930;2023-07-13T18:34:01;22.12;47.18
75357;HTU21D;63946;51.986;5.930;2023-07-13T18:36:30;22.09;47.01
75357;HTU21D;63946;51.986;5.930;2023-07-13T18:38:59;22.03;47.18
75357;HTU21D;63946;51.986;5.930;2023-07-13T18:41:31;21.98;47.46
75357;HTU21D;63946;51.986;5.930;2023-07-13T18:44:00;21.95;47.58
75357;HTU21D;63946;51.986;5.930;2023-07-13T18:46:30;21.93;47.76
75357;HTU21D;63946;51.986;5.930;2023-07-13T18:49:02;21.89;48.05
75357;HTU21D;63946;51.986;5.930;2023-07-13T18:51:31;21.85;48.21
75357;HTU21D;63946;51.986;5.930;2023-07-13T18:54:00;21.80;48.28
75357;HTU21D;63946;51.986;5.930;2023-07-13T18:56:28;21.76;48.47
75357;HTU21D;63946;51.986;5.930;2023-07-13T18:58:57;21.73;48.77
75357;HTU21D;63946;51.986;5.930;2023-07-13T19:01:32;21.68;49.04
75357;HTU21D;63946;51.986;5.930;2023-07-13T19:04:27;21.63;49.22
75357;HTU21D;63946;51.986;5.930;2023-07-13T19:06:57;21.61;49.39
75357;HTU21D;63946;51.986;5.930;2023-07-13T19:09:26;21.54;49.63
75357;HTU21D;63946;51.986;5.930;2023-07-13T19:11:55;21.50;49.93
75357;HTU21D;63946;51.986;5.930;2023-07-13T19:14:24;21.48;50.27
75357;HTU21D;63946;51.986;5.930;2023-07-13T19:16:54;21.40;50.58
75357;HTU21D;63946;51.986;5.930;2023-07-13T19:19:23;21.36;50.74
75357;HTU21D;63946;51.986;5.930;2023-07-13T19:21:53;21.34;50.79
75357;HTU21D;63946;51.986;5.930;2023-07-13T19:24:24;21.30;51.02
75357;HTU21D;63946;51.986;5.930;2023-07-13T19:26:54;21.25;51.22
75357;HTU21D;63946;51.986;5.930;2023-07-13T19:29:25;21.22;51.55
75357;HTU21D;63946;51.986;5.930;2023-07-13T19:31:56;21.18;51.67
75357;HTU21D;63946;51.986;5.930;2023-07-13T19:34:26;21.15;52.04
75357;HTU21D;63946;51.986;5.930;2023-07-13T19:36:59;21.13;52.39
75357;HTU21D;63946;51.986;5.930;2023-07-13T19:39:35;21.08;52.61
75357;HTU21D;63946;51.986;5.930;2023-07-13T19:42:25;21.05;52.44
75357;HTU21D;63946;51.986;5.930;2023-07-13T19:44:57;20.98;52.63
75357;HTU21D;63946;51.986;5.930;2023-07-13T19:47:26;20.94;52.88
75357;HTU21D;63946;51.986;5.930;2023-07-13T19:49:55;20.88;52.84
75357;HTU21D;63946;51.986;5.930;2023-07-13T19:52:26;20.84;52.97
75357;HTU21D;63946;51.986;5.930;2023-07-13T19:54:59;20.79;52.86
75357;HTU21D;63946;51.986;5.930;2023-07-13T19:57:29;20.75;53.00
75357;HTU21D;63946;51.986;5.930;2023-07-13T19:59:58;20.70;53.51
75357;HTU21D;63946;51.986;5.930;2023-07-13T20:02:28;20.63;53.91
75357;HTU21D;63946;51.986;5.930;2023-07-13T20:04:57;20.59;54.25
75357;HTU21D;63946;51.986;5.930;2023-07-13T20:07:34;20.51;54.57
75357;HTU21D;63946;51.986;5.930;2023-07-13T20:10:25;20.47;54.89